Time;durP1;ratioP1;P1;durP2;ratioP2;P2;SDS_P1;SDS_P2;PMS_P1;PMS_P2;Temp;Humidity;BMP_temperature;BMP_pressure;BME280_temperature;BME280_humidity;BME280_pressure;Samples;Min_cycle;Max_cycle;Signal;HPM_P1;HPM_P2
2022/01/30 00:01:40;;;;;;;3.80;2.90;;;;;;;6.04;90.78;98333.14;89553;1277;80266;-71
2022/01/30 00:03:52;;;;;;;4.40;3.00;;;;;;;6.04;90.84;98333.55;89551;1277;82293;-71
2022/01/30 00:06:04;;;;;;;3.00;2.50;;;;;;;6.05;90.86;98318.08;89568;1277;97414;-72
2022/01/30 00:08:13;;;;;;;3.60;2.60;;;;;;;6.06;90.88;98328.72;89565;1277;88156;-72
2022/01/30 00:10:22;;;;;;;3.70;2.10;;;;;;;6.08;90.77;98324.50;89550;1277;95505;-71
2022/01/30 00:12:40;;;;;;;3.20;2.20;;;;;;;6.08;90.72;98319.96;89557;1277;81551;-71
2022/01/30 00:14:53;;;;;;;3.40;2.10;;;;;;;6.11;90.64;98340.00;89542;1277;81543;-70
2022/01/30 00:17:11;;;;;;;2.30;2.00;;;;;;;6.12;90.79;98339.20;89566;1277;98841;-62
2022/01/30 00:19:24;;;;;;;3.80;1.90;;;;;;;6.10;90.66;98347.55;89565;1277;89096;-62
2022/01/30 00:21:38;;;;;;;2.40;1.60;;;;;;;6.08;90.56;98354.77;89551;1276;93497;-71
2022/01/30 00:23:51;;;;;;;2.90;1.40;;;;;;;6.05;90.33;98348.92;89563;1277;79877;-71
2022/01/30 00:26:05;;;;;;;3.10;1.20;;;;;;;6.00;90.22;98367.41;89578;1277;79893;-71
2022/01/30 00:28:16;;;;;;;4.10;1.40;;;;;;;5.95;89.97;98381.64;89569;1277;97225;-71
2022/01/30 00:30:26;;;;;;;3.40;1.20;;;;;;;5.86;89.67;98378.07;89552;1277;88724;-72
2022/01/30 00:32:35;;;;;;;3.70;1.00;;;;;;;5.79;89.75;98393.83;89550;1277;92833;-71
2022/01/30 00:34:44;;;;;;;4.80;1.20;;;;;;;5.80;89.56;98418.16;89556;1277;82839;-72
2022/01/30 00:36:53;;;;;;;2.60;1.10;;;;;;;5.78;89.45;98415.52;89562;1277;80073;-63
2022/01/30 00:39:02;;;;;;;5.10;1.20;;;;;;;5.73;89.34;98411.61;89551;1277;98899;-63
2022/01/30 00:41:11;;;;;;;4.70;1.20;;;;;;;5.69;89.27;98420.52;89588;1277;89219;-64
2022/01/30 00:43:20;;;;;;;3.80;1.10;;;;;;;5.63;89.00;98415.85;89545;1277;95233;-72
2022/01/30 00:45:29;;;;;;;2.00;0.70;;;;;;;5.59;88.67;98408.52;89550;1277;81380;-72
2022/01/30 00:47:38;;;;;;;5.10;1.10;;;;;;;5.54;88.34;98422.27;89568;1277;82120;-75
2022/01/30 00:49:47;;;;;;;3.60;1.00;;;;;;;5.45;88.07;98411.94;89557;1277;96948;-72
2022/01/30 00:51:56;;;;;;;4.00;0.80;;;;;;;5.35;87.95;98416.95;89549;1277;88561;-67
2022/01/30 00:54:07;;;;;;;6.60;1.20;;;;;;;5.23;87.69;98424.96;89549;1277;93105;-63
2022/01/30 00:56:18;;;;;;;4.30;1.60;;;;;;;5.17;87.68;98415.89;89469;1277;81595;-63
2022/01/30 00:58:31;;;;;;;4.90;1.00;;;;;;;5.16;87.68;98423.93;89554;1277;83780;-63
2022/01/30 01:00:41;;;;;;;2.80;0.90;;;;;;;5.19;87.71;98430.73;89533;1277;99438;-63
2022/01/30 01:02:50;;;;;;;5.20;0.90;;;;;;;5.17;87.28;98414.58;89545;1277;89370;-72
2022/01/30 01:05:04;;;;;;;5.10;1.10;;;;;;;5.07;86.90;98423.61;89565;1277;95340;-73
2022/01/30 01:07:18;;;;;;;4.00;1.00;;;;;;;5.00;86.77;98428.12;89549;1277;83039;-73
2022/01/30 01:09:35;;;;;;;5.00;1.10;;;;;;;4.92;86.01;98430.28;89553;1277;83207;-72
2022/01/30 01:24:07;;;;;;;6.30;1.30;;;;;;;4.38;85.24;98425.02;89327;1277;97003;-74
2022/01/30 01:26:17;;;;;;;6.70;1.10;;;;;;;4.29;85.05;98427.07;89555;1277;87983;-71
2022/01/30 01:28:27;;;;;;;6.10;1.40;;;;;;;4.23;85.03;98427.08;89527;1277;94955;-74
2022/01/30 01:30:39;;;;;;;5.70;1.30;;;;;;;4.21;85.00;98421.89;89556;1277;80879;-73
2022/01/30 01:32:49;;;;;;;5.50;1.50;;;;;;;4.24;85.22;98416.17;89561;1277;80791;-73
2022/01/30 01:34:58;;;;;;;7.10;1.50;;;;;;;4.26;85.17;98413.27;89555;1277;97801;-74
2022/01/30 01:37:10;;;;;;;5.90;1.10;;;;;;;4.27;85.02;98418.99;89543;1277;88595;-63
2022/01/30 01:39:19;;;;;;;2.60;0.90;;;;;;;4.25;84.82;98422.69;89522;1277;94075;-62
2022/01/30 01:41:30;;;;;;;4.00;0.90;;;;;;;4.22;84.90;98416.86;89360;1277;269173;-73
2022/01/30 01:43:41;;;;;;;4.30;1.10;;;;;;;4.22;84.80;98409.50;89566;1277;80831;-74
2022/01/30 01:45:53;;;;;;;8.50;1.90;;;;;;;4.29;84.69;98415.88;89541;1277;96562;-73
2022/01/30 01:48:08;;;;;;;9.50;1.80;;;;;;;4.36;84.65;98406.79;89569;1277;88231;-68
2022/01/30 01:50:37;;;;;;;5.90;1.20;;;;;;;4.40;84.73;98412.95;89535;1277;93557;-62
2022/01/30 01:52:47;;;;;;;6.80;1.50;;;;;;;4.47;84.48;98398.41;89543;1278;80322;-63
2022/01/30 01:55:00;;;;;;;6.30;1.60;;;;;;;4.52;84.50;98405.26;89544;1277;82356;-62
2022/01/30 01:57:12;;;;;;;9.10;2.60;;;;;;;4.51;84.34;98404.92;89556;1277;99277;-63
2022/01/30 01:59:20;;;;;;;10.50;1.60;;;;;;;4.51;84.17;98414.58;89550;1277;89002;-62
2022/01/30 02:01:32;;;;;;;10.10;1.80;;;;;;;4.50;84.05;98400.11;89540;1277;95244;-72
2022/01/30 02:03:43;;;;;;;10.70;1.90;;;;;;;4.48;83.96;98407.13;89533;1277;79227;-73
2022/01/30 02:05:58;;;;;;;8.90;2.90;;;;;;;4.43;83.46;98390.45;89566;1277;81537;-73
2022/01/30 02:08:30;;;;;;;6.60;1.90;;;;;;;4.42;83.15;98397.28;89535;1277;96478;-73
2022/01/30 02:10:51;;;;;;;7.10;1.80;;;;;;;4.41;82.94;98401.14;89548;1277;88891;-73
2022/01/30 02:13:15;;;;;;;5.90;1.30;;;;;;;4.39;82.89;98398.58;89541;1277;95030;-74
2022/01/30 02:23:55;;;;;;;;;;;;;;;4.38;83.09;98388.75;89488;1277;80605;-73
2022/01/30 02:25:42;;;;;;;8.70;1.80;;;;;;;4.40;83.26;98388.92;89544;1277;95750;-74
2022/01/30 02:27:56;;;;;;;6.60;1.70;;;;;;;4.45;82.57;98381.91;89532;1277;80182;-62
2022/01/30 02:30:09;;;;;;;9.30;2.10;;;;;;;4.48;83.06;98381.09;89538;1276;81188;-62
2022/01/30 02:32:21;;;;;;;9.10;2.60;;;;;;;4.49;83.16;98378.34;89527;1277;98899;-75
2022/01/30 02:34:37;;;;;;;8.70;2.00;;;;;;;4.46;83.32;98383.02;89532;1277;89379;-74
2022/01/30 02:36:51;;;;;;;8.10;1.90;;;;;;;4.44;83.48;98378.73;89494;1277;95637;-74
2022/01/30 02:39:00;;;;;;;7.10;1.80;;;;;;;4.43;83.47;98373.09;89541;1277;79514;-74
2022/01/30 02:41:10;;;;;;;7.10;1.90;;;;;;;4.39;83.51;98370.56;89555;1277;82623;-69
2022/01/30 02:43:26;;;;;;;6.50;1.50;;;;;;;4.39;83.44;98365.17;89557;1278;97224;-74
2022/01/30 02:45:39;;;;;;;8.00;1.80;;;;;;;4.39;83.61;98362.67;89536;1278;88149;-75
2022/01/30 02:47:59;;;;;;;8.20;1.80;;;;;;;4.40;83.47;98356.52;89524;1277;95580;-61
2022/01/30 02:50:17;;;;;;;10.60;2.10;;;;;;;4.38;83.46;98353.10;89423;1278;80995;-61
2022/01/30 02:52:30;;;;;;;8.50;2.10;;;;;;;4.41;83.44;98352.11;89558;1277;82621;-60
2022/01/30 02:54:42;;;;;;;8.00;1.80;;;;;;;4.44;82.89;98341.55;89554;1278;96161;-61
2022/01/30 02:56:51;;;;;;;8.50;2.20;;;;;;;4.47;82.86;98334.29;89533;1276;89132;-61
2022/01/30 02:59:01;;;;;;;11.70;2.10;;;;;;;4.48;82.80;98330.50;89526;1276;95696;-62
2022/01/30 03:01:10;;;;;;;10.10;2.20;;;;;;;4.47;82.37;98335.07;89519;1278;78069;-65
2022/01/30 03:03:19;;;;;;;10.70;2.20;;;;;;;4.44;81.89;98319.23;89496;1278;81940;-62
2022/01/30 03:05:28;;;;;;;10.50;2.20;;;;;;;4.42;81.78;98345.86;89498;1278;99602;-62
2022/01/30 03:07:37;;;;;;;13.40;2.40;;;;;;;4.40;81.85;98349.19;89515;1278;87466;-62
2022/01/30 03:09:45;;;;;;;9.10;1.80;;;;;;;4.37;82.07;98351.82;89496;1278;93939;-61
2022/01/30 03:11:54;;;;;;;8.00;1.80;;;;;;;4.35;81.96;98361.83;89468;1277;79152;-62
2022/01/30 03:14:04;;;;;;;5.10;1.60;;;;;;;4.32;82.22;98365.61;89500;1277;80419;-62
2022/01/30 03:16:13;;;;;;;5.40;1.30;;;;;;;4.29;82.31;98381.17;89514;1277;98369;-73
2022/01/30 03:18:25;;;;;;;4.90;1.60;;;;;;;4.18;82.56;98365.30;89477;1277;89213;-73
2022/01/30 03:20:34;;;;;;;8.50;1.70;;;;;;;3.99;82.67;98355.45;89473;1277;93795;-73
2022/01/30 03:22:43;;;;;;;5.60;1.20;;;;;;;3.87;82.72;98363.08;89499;1277;78610;-62
2022/01/30 03:24:54;;;;;;;6.10;1.20;;;;;;;3.77;82.88;98366.21;89487;1277;83014;-62
2022/01/30 03:27:03;;;;;;;4.20;1.20;;;;;;;3.67;82.80;98358.55;89484;1277;98698;-62
2022/01/30 03:29:13;;;;;;;5.80;1.00;;;;;;;3.61;82.92;98343.48;89477;1277;87656;-62
2022/01/30 03:31:22;;;;;;;7.00;1.30;;;;;;;3.55;82.99;98348.01;84948;1277;3012713;-73
2022/01/30 03:33:31;;;;;;;4.70;0.80;;;;;;;3.51;83.08;98341.20;89471;1277;81808;-73
2022/01/30 03:35:40;;;;;;;4.10;1.00;;;;;;;3.47;82.96;98344.95;89520;1277;79931;-74
2022/01/30 03:37:51;;;;;;;2.60;0.60;;;;;;;3.38;83.03;98334.66;89509;1277;99504;-73
2022/01/30 03:40:03;;;;;;;6.20;1.20;;;;;;;3.32;82.89;98329.77;89533;1277;89381;-73
2022/01/30 03:42:13;;;;;;;4.20;1.10;;;;;;;3.31;83.07;98333.48;89488;1277;95009;-62
2022/01/30 03:44:22;;;;;;;5.90;1.60;;;;;;;3.33;83.23;98326.36;89504;1277;78800;-62
2022/01/30 03:46:31;;;;;;;5.20;1.00;;;;;;;3.37;83.26;98324.30;89511;1277;81800;-62
2022/01/30 03:48:42;;;;;;;3.80;0.80;;;;;;;3.41;83.20;98315.70;89504;1277;96533;-62
2022/01/30 03:50:51;;;;;;;4.30;1.10;;;;;;;3.45;83.22;98308.31;89427;1278;88832;-62
2022/01/30 03:53:04;;;;;;;4.00;0.90;;;;;;;3.49;83.35;98307.33;89496;1277;95337;-74
2022/01/30 03:55:13;;;;;;;3.50;1.00;;;;;;;3.52;83.27;98300.71;89512;1277;78172;-73
2022/01/30 03:57:22;;;;;;;3.20;0.90;;;;;;;3.54;83.39;98295.27;89494;1277;81970;-62
2022/01/30 03:59:30;;;;;;;5.50;1.30;;;;;;;3.57;83.22;98297.27;89470;1278;100841;-62
2022/01/30 04:01:42;;;;;;;7.10;1.50;;;;;;;3.57;83.16;98291.64;89526;1277;87152;-62
2022/01/30 04:03:51;;;;;;;8.00;1.50;;;;;;;3.57;83.21;98285.42;89497;1277;95118;-62
2022/01/30 04:06:00;;;;;;;7.20;1.40;;;;;;;3.59;83.43;98282.90;89492;1277;79187;-62
2022/01/30 04:08:11;;;;;;;6.30;1.40;;;;;;;3.61;83.28;98278.70;89447;1278;80475;-72
2022/01/30 04:10:20;;;;;;;6.70;1.40;;;;;;;3.62;83.35;98280.04;89503;1277;96727;-72
2022/01/30 04:12:33;;;;;;;6.10;1.80;;;;;;;3.62;83.29;98281.55;89490;1277;89137;-62
2022/01/30 04:14:45;;;;;;;8.60;2.10;;;;;;;3.64;83.40;98278.23;89473;1277;95678;-62
2022/01/30 04:16:55;;;;;;;9.00;2.00;;;;;;;3.65;83.47;98270.08;89505;1278;80222;-72
2022/01/30 04:19:04;;;;;;;9.50;1.80;;;;;;;3.64;83.43;98263.00;89481;1277;82892;-72
2022/01/30 04:21:13;;;;;;;11.10;1.70;;;;;;;3.65;83.54;98262.02;89478;1276;99526;-63
2022/01/30 04:23:22;;;;;;;11.00;2.00;;;;;;;3.67;83.61;98254.34;89515;1278;88675;-62
2022/01/30 04:25:31;;;;;;;10.00;1.90;;;;;;;3.70;83.56;98251.08;89482;1278;94295;-62
2022/01/30 04:27:43;;;;;;;8.80;2.00;;;;;;;3.73;83.44;98245.99;89470;1277;80988;-72
2022/01/30 04:29:52;;;;;;;9.70;1.80;;;;;;;3.76;83.46;98244.24;89502;1278;81997;-72
2022/01/30 04:32:06;;;;;;;7.40;1.70;;;;;;;3.81;83.31;98242.98;89504;1278;98922;-72
2022/01/30 04:34:16;;;;;;;7.50;1.50;;;;;;;3.87;83.18;98235.30;89492;1277;89344;-73
2022/01/30 04:36:31;;;;;;;7.70;1.70;;;;;;;3.90;82.96;98228.16;89421;1278;94722;-62
2022/01/30 04:38:56;;;;;;;8.50;1.60;;;;;;;3.90;82.85;98212.59;89499;1277;79012;-62
2022/01/30 04:41:29;;;;;;;10.20;1.90;;;;;;;3.91;82.68;98194.59;89512;1277;80516;-61
2022/01/30 04:53:50;;;;;;;10.00;2.20;;;;;;;3.84;82.09;98192.89;89526;1277;80162;-72
2022/01/30 04:58:29;;;;;;;7.20;1.50;;;;;;;3.83;82.08;98181.70;89493;1278;86337;-62
2022/01/30 05:00:59;;;;;;;8.90;1.90;;;;;;;3.84;82.14;98183.19;89504;1277;95008;-62
2022/01/30 05:03:27;;;;;;;9.40;1.60;;;;;;;3.86;82.01;98164.94;89524;1278;79287;-73
2022/01/30 05:05:54;;;;;;;7.30;1.70;;;;;;;3.90;81.90;98165.63;89555;1277;83204;-72
2022/01/30 05:08:07;;;;;;;5.40;1.50;;;;;;;3.95;81.97;98152.40;89525;1277;97343;-73
2022/01/30 05:10:16;;;;;;;7.50;2.10;;;;;;;3.98;81.52;98144.80;89507;1277;88934;-72
2022/01/30 05:12:37;;;;;;;6.60;2.10;;;;;;;4.02;81.47;98130.92;89510;1277;95458;-61
2022/01/30 05:14:49;;;;;;;6.40;1.50;;;;;;;4.04;81.33;98130.17;89508;1277;78303;-61
2022/01/30 05:16:59;;;;;;;8.60;1.90;;;;;;;4.09;81.35;98137.42;89508;1277;80432;-72
2022/01/30 05:19:12;;;;;;;7.50;1.50;;;;;;;4.12;81.55;98132.58;89420;1279;98083;-72
2022/01/30 05:21:22;;;;;;;8.30;2.40;;;;;;;4.14;80.99;98115.89;89522;1277;89293;-61
2022/01/30 05:23:32;;;;;;;9.70;1.80;;;;;;;4.15;80.91;98110.09;89506;1277;95633;-61
2022/01/30 05:25:43;;;;;;;8.20;1.60;;;;;;;4.11;80.98;98101.83;89423;1278;78380;-61
2022/01/30 05:27:53;;;;;;;9.10;1.90;;;;;;;4.08;81.11;98106.35;89422;1278;81021;-61
2022/01/30 05:30:03;;;;;;;7.40;1.40;;;;;;;4.01;81.12;98107.53;89436;1278;98840;-61
2022/01/30 05:32:15;;;;;;;6.20;1.50;;;;;;;3.90;81.51;98110.02;89515;1277;88653;-72
2022/01/30 05:34:25;;;;;;;6.90;1.60;;;;;;;3.82;81.72;98117.89;89400;1279;95549;-72
2022/01/30 05:36:36;;;;;;;5.60;1.90;;;;;;;3.75;81.84;98125.97;89498;1277;80233;-62
2022/01/30 05:38:50;;;;;;;9.00;1.60;;;;;;;3.70;82.09;98118.94;89441;1278;80861;-62
2022/01/30 05:40:59;;;;;;;5.40;1.50;;;;;;;3.69;82.12;98134.78;89488;1277;98642;-61
2022/01/30 05:43:09;;;;;;;7.00;1.70;;;;;;;3.68;81.80;98143.50;89496;1278;87509;-61
2022/01/30 05:45:28;;;;;;;5.80;1.30;;;;;;;3.68;81.86;98131.59;89515;1278;95049;-61
2022/01/30 05:47:44;;;;;;;6.90;1.90;;;;;;;3.70;81.46;98148.48;89487;1277;79101;-61
2022/01/30 05:49:58;;;;;;;3.40;1.30;;;;;;;3.69;81.54;98150.93;89408;1278;81814;-61
2022/01/30 05:52:10;;;;;;;7.20;1.80;;;;;;;3.68;81.59;98153.71;89498;1278;99925;-61
2022/01/30 05:54:21;;;;;;;7.20;2.00;;;;;;;3.68;81.37;98146.12;89515;1278;87606;-61
2022/01/30 05:56:33;;;;;;;8.90;1.80;;;;;;;3.65;81.22;98150.77;89426;1278;95636;-72
2022/01/30 05:58:43;;;;;;;7.80;1.60;;;;;;;3.64;81.00;98143.23;89500;1277;77778;-73
2022/01/30 06:00:55;;;;;;;8.00;1.60;;;;;;;3.62;80.94;98151.77;89513;1277;81940;-72
2022/01/30 06:03:04;;;;;;;10.30;2.00;;;;;;;3.58;80.63;98143.91;89528;1277;97197;-72
2022/01/30 06:05:15;;;;;;;12.00;2.70;;;;;;;3.59;80.45;98155.66;89515;1277;86922;-72
2022/01/30 06:07:29;;;;;;;7.00;1.80;;;;;;;3.59;79.96;98150.12;89499;1277;93050;-61
2022/01/30 06:09:37;;;;;;;9.10;1.80;;;;;;;3.58;80.45;98158.45;89503;1277;80917;-61
2022/01/30 06:11:47;;;;;;;9.90;1.90;;;;;;;3.58;80.06;98161.58;89509;1277;80347;-63
2022/01/30 06:13:56;;;;;;;8.20;1.40;;;;;;;3.60;80.13;98160.63;89490;1277;99322;-61
2022/01/30 06:16:06;;;;;;;8.70;1.80;;;;;;;3.63;80.09;98154.23;89510;1278;88727;-61
2022/01/30 06:18:18;;;;;;;5.20;1.50;;;;;;;3.64;80.04;98155.02;89521;1277;93397;-61
2022/01/30 06:20:30;;;;;;;8.10;1.70;;;;;;;3.66;79.68;98166.82;89500;1277;80369;-61
2022/01/30 06:22:39;;;;;;;8.10;2.00;;;;;;;3.71;79.76;98161.73;89512;1277;81827;-61
2022/01/30 06:24:50;;;;;;;6.30;1.60;;;;;;;3.75;79.63;98158.39;89515;1277;97033;-61
2022/01/30 06:27:02;;;;;;;9.70;1.90;;;;;;;3.77;79.43;98165.34;89530;1277;88797;-72
2022/01/30 06:29:14;;;;;;;10.20;2.30;;;;;;;3.78;79.54;98163.17;89491;1278;95696;-73
2022/01/30 06:31:26;;;;;;;8.40;1.90;;;;;;;3.81;79.54;98170.40;89520;1277;76907;-63
2022/01/30 06:33:35;;;;;;;14.20;2.20;;;;;;;3.77;79.06;98173.52;89539;1277;83588;-61
2022/01/30 06:35:44;;;;;;;10.20;2.40;;;;;;;3.76;79.29;98179.52;89503;1277;99564;-61
2022/01/30 06:37:53;;;;;;;9.90;1.70;;;;;;;3.72;79.33;98179.45;89506;1277;88706;-73
2022/01/30 06:40:02;;;;;;;6.00;1.50;;;;;;;3.68;79.32;98175.48;89509;1277;94142;-72
2022/01/30 06:42:13;;;;;;;6.80;1.60;;;;;;;3.67;79.38;98179.55;89521;1277;80804;-61
2022/01/30 06:44:22;;;;;;;8.20;1.80;;;;;;;3.63;79.13;98172.27;89521;1277;83224;-61
2022/01/30 06:46:31;;;;;;;6.30;1.60;;;;;;;3.62;79.19;98170.98;89501;1278;97979;-61
2022/01/30 06:48:40;;;;;;;6.70;1.40;;;;;;;3.62;79.31;98174.73;89520;1277;87944;-61
2022/01/30 06:50:49;;;;;;;5.70;1.60;;;;;;;3.62;79.32;98166.14;89495;1277;95276;-61
2022/01/30 06:52:58;;;;;;;7.50;1.50;;;;;;;3.67;79.21;98170.77;89508;1278;79087;-72
2022/01/30 06:55:08;;;;;;;7.20;1.60;;;;;;;3.73;79.33;98173.17;89546;1277;80478;-74
2022/01/30 06:57:17;;;;;;;8.40;1.70;;;;;;;3.80;79.43;98160.74;89551;1277;98662;-72
2022/01/30 06:59:29;;;;;;;6.40;1.50;;;;;;;3.86;79.52;98160.27;89522;1277;88661;-73
2022/01/30 07:01:40;;;;;;;9.60;1.70;;;;;;;3.88;79.16;98164.63;89529;1277;93163;-73
2022/01/30 07:03:49;;;;;;;11.00;1.80;;;;;;;3.92;78.95;98168.83;89545;1278;80161;-72
2022/01/30 07:05:58;;;;;;;7.80;2.30;;;;;;;3.94;78.95;98157.91;89542;1277;81712;-73
2022/01/30 07:08:10;;;;;;;8.50;2.00;;;;;;;3.98;79.01;98162.30;89512;1277;99951;-72
2022/01/30 07:10:19;;;;;;;7.30;1.50;;;;;;;4.01;78.92;98152.04;89529;1277;87921;-72
2022/01/30 07:12:30;;;;;;;6.40;1.90;;;;;;;3.99;78.76;98150.88;89530;1277;94247;-72
2022/01/30 07:14:42;;;;;;;7.60;1.20;;;;;;;3.99;78.95;98143.90;89528;1277;78515;-73
2022/01/30 07:16:51;;;;;;;5.10;1.40;;;;;;;3.95;79.10;98144.14;89550;1277;80382;-61
2022/01/30 07:19:04;;;;;;;3.60;1.20;;;;;;;3.91;79.30;98140.84;89543;1278;99173;-61
2022/01/30 07:21:13;;;;;;;6.10;1.20;;;;;;;3.88;79.56;98136.36;89536;1277;88429;-62
2022/01/30 07:23:22;;;;;;;5.00;1.90;;;;;;;3.85;79.79;98130.80;89510;1277;94747;-61
2022/01/30 07:25:30;;;;;;;5.20;1.20;;;;;;;3.87;79.69;98126.34;89533;1277;79078;-62
2022/01/30 07:27:40;;;;;;;4.20;1.20;;;;;;;3.91;79.95;98125.27;89541;1277;81030;-62
2022/01/30 07:29:49;;;;;;;5.00;1.30;;;;;;;3.95;79.97;98109.92;89523;1277;99971;-61
2022/01/30 07:32:01;;;;;;;7.60;1.90;;;;;;;3.95;79.96;98103.55;89550;1277;89398;-62
2022/01/30 07:34:09;;;;;;;3.10;1.10;;;;;;;3.92;80.12;98104.20;89537;1277;95438;-62
2022/01/30 07:36:21;;;;;;;3.50;1.50;;;;;;;3.91;80.33;98103.49;89520;1277;78759;-72
2022/01/30 07:38:34;;;;;;;4.20;1.10;;;;;;;3.93;80.46;98118.00;89516;1277;81712;-74
2022/01/30 07:40:43;;;;;;;5.50;1.30;;;;;;;3.95;80.65;98118.25;89554;1277;99144;-74
2022/01/30 07:42:52;;;;;;;4.10;1.40;;;;;;;3.94;80.70;98108.99;89532;1277;88679;-62
2022/01/30 07:45:04;;;;;;;3.90;1.20;;;;;;;3.92;80.89;98105.63;89505;1277;95995;-62
2022/01/30 07:47:16;;;;;;;4.20;1.10;;;;;;;3.94;81.13;98116.15;89339;1279;80255;-62
2022/01/30 07:49:27;;;;;;;3.20;1.10;;;;;;;3.94;81.19;98124.22;89392;1279;81242;-62
2022/01/30 07:51:39;;;;;;;4.40;0.90;;;;;;;3.87;81.35;98126.61;89523;1277;98704;-62
2022/01/30 07:53:47;;;;;;;3.70;1.00;;;;;;;3.85;81.24;98114.86;89529;1277;86791;-62
2022/01/30 07:55:59;;;;;;;1.80;0.80;;;;;;;3.77;81.52;98118.34;89552;1277;93668;-62
2022/01/30 07:58:12;;;;;;;1.80;0.70;;;;;;;3.70;81.51;98124.80;89537;1277;79167;-62
2022/01/30 08:00:21;;;;;;;2.80;0.90;;;;;;;3.62;81.35;98130.67;89527;1277;81564;-64
2022/01/30 08:02:33;;;;;;;3.90;1.50;;;;;;;3.56;81.59;98141.57;89541;1277;97599;-73
2022/01/30 08:04:45;;;;;;;2.20;1.10;;;;;;;3.53;81.37;98140.20;89562;1277;88738;-73
2022/01/30 08:06:53;;;;;;;2.70;1.00;;;;;;;3.48;81.55;98166.00;89522;1277;95786;-73
2022/01/30 08:09:02;;;;;;;1.20;0.60;;;;;;;3.33;81.89;98171.15;89530;1277;80108;-72
2022/01/30 08:11:13;;;;;;;3.00;0.70;;;;;;;3.22;81.82;98154.14;89417;1281;81591;-63
2022/01/30 08:13:25;;;;;;;1.40;0.60;;;;;;;3.16;82.02;98152.42;89370;1278;99745;-63
2022/01/30 08:15:34;;;;;;;3.20;0.90;;;;;;;3.09;82.18;98159.95;89563;1277;89745;-62
2022/01/30 08:17:47;;;;;;;1.30;0.70;;;;;;;2.98;82.14;98153.98;89539;1277;94962;-70
2022/01/30 08:19:55;;;;;;;1.30;0.40;;;;;;;2.90;82.39;98137.76;89542;1277;80977;-71
2022/01/30 08:22:05;;;;;;;1.50;0.60;;;;;;;2.82;82.44;98134.88;89563;1277;81420;-61
2022/01/30 08:24:14;;;;;;;1.80;0.60;;;;;;;2.76;82.78;98143.49;89560;1277;98213;-62
2022/01/30 08:26:22;;;;;;;2.00;0.60;;;;;;;2.66;83.14;98143.05;89596;1277;89679;-61
2022/01/30 08:28:32;;;;;;;1.90;0.80;;;;;;;2.72;83.19;98146.21;89562;1277;94984;-61
2022/01/30 08:30:41;;;;;;;1.90;0.70;;;;;;;2.78;83.40;98141.98;89564;1277;80228;-62
2022/01/30 08:32:52;;;;;;;1.90;0.60;;;;;;;2.88;83.41;98143.56;89605;1277;81782;-63
2022/01/30 08:35:04;;;;;;;1.80;0.50;;;;;;;2.92;83.50;98145.20;89563;1277;100262;-62
2022/01/30 08:37:13;;;;;;;2.50;0.80;;;;;;;2.94;83.34;98158.39;89576;1277;88468;-73
2022/01/30 08:39:22;;;;;;;1.20;0.60;;;;;;;3.01;83.54;98161.53;89375;1279;95243;-73
2022/01/30 08:41:34;;;;;;;1.40;0.50;;;;;;;3.06;83.35;98157.66;89409;1279;79127;-62
2022/01/30 08:43:46;;;;;;;1.20;0.50;;;;;;;3.10;83.26;98152.35;89584;1277;83206;-62
2022/01/30 08:45:56;;;;;;;2.10;1.20;;;;;;;3.08;83.35;98166.83;89567;1277;99972;-62
2022/01/30 08:48:08;;;;;;;3.30;1.10;;;;;;;3.04;83.35;98154.82;89586;1277;89099;-62
2022/01/30 08:50:21;;;;;;;1.80;0.60;;;;;;;3.01;83.30;98148.98;89570;1277;94280;-62
2022/01/30 08:52:33;;;;;;;2.00;0.60;;;;;;;3.00;83.20;98154.30;89580;1277;79335;-62
2022/01/30 08:54:41;;;;;;;2.20;0.90;;;;;;;2.89;83.19;98158.02;89559;1277;80530;-62
2022/01/30 08:56:53;;;;;;;2.60;0.80;;;;;;;2.90;83.42;98162.54;89561;1277;100549;-62
2022/01/30 08:59:02;;;;;;;1.70;0.70;;;;;;;3.20;83.69;98162.02;89596;1277;89401;-74
2022/01/30 09:01:14;;;;;;;1.70;0.70;;;;;;;3.54;83.93;98169.97;89378;1279;91932;-62
2022/01/30 09:03:23;;;;;;;1.40;0.60;;;;;;;4.04;83.34;98165.86;89547;1277;78981;-63
2022/01/30 09:05:32;;;;;;;0.90;0.50;;;;;;;4.27;83.32;98160.50;89599;1277;80352;-64
2022/01/30 09:07:42;;;;;;;0.90;0.60;;;;;;;4.96;83.25;98150.90;89402;1277;98583;-72
2022/01/30 09:09:54;;;;;;;2.10;0.80;;;;;;;5.03;82.37;98145.30;89595;1277;89715;-70
2022/01/30 09:12:04;;;;;;;2.10;0.80;;;;;;;4.77;81.67;98158.42;89585;1277;94984;-72
2022/01/30 09:14:15;;;;;;;4.20;1.30;;;;;;;4.62;81.80;98156.79;89407;1279;77416;-71
2022/01/30 09:16:27;;;;;;;2.40;1.30;;;;;;;4.60;81.95;98156.95;89606;1277;81049;-62
2022/01/30 09:18:38;;;;;;;1.60;0.70;;;;;;;4.66;81.79;98161.10;89589;1277;100093;-62
2022/01/30 09:20:50;;;;;;;1.90;0.80;;;;;;;4.72;81.67;98150.90;89598;1277;88810;-63
2022/01/30 09:22:58;;;;;;;2.90;1.20;;;;;;;4.72;81.52;98158.52;89601;1277;93932;-62
2022/01/30 09:25:12;;;;;;;2.50;1.10;;;;;;;4.66;81.36;98154.67;89569;1276;80742;-63
2022/01/30 09:27:21;;;;;;;3.60;0.80;;;;;;;4.61;81.27;98157.93;89601;1277;83963;-62
2022/01/30 09:29:30;;;;;;;2.80;1.10;;;;;;;4.61;81.42;98154.93;89593;1277;98435;-62
2022/01/30 09:31:39;;;;;;;2.40;1.00;;;;;;;4.59;81.44;98160.94;89581;1277;89163;-71
2022/01/30 09:33:48;;;;;;;2.90;0.90;;;;;;;4.59;81.22;98163.20;89537;1277;95619;-71
2022/01/30 09:36:00;;;;;;;2.40;0.80;;;;;;;4.57;81.25;98165.09;89572;1277;81956;-70
2022/01/30 09:38:09;;;;;;;3.00;1.30;;;;;;;4.49;81.26;98162.50;89598;1277;81994;-63
2022/01/30 09:40:18;;;;;;;3.30;1.00;;;;;;;4.42;81.43;98164.47;89570;1277;98283;-62
2022/01/30 09:42:30;;;;;;;3.40;1.30;;;;;;;4.45;81.65;98163.81;89364;1276;312419;-71
2022/01/30 09:44:42;;;;;;;2.10;0.90;;;;;;;4.42;81.53;98162.84;89377;1278;94634;-71
2022/01/30 09:46:55;;;;;;;4.20;1.50;;;;;;;4.45;81.63;98168.91;89368;1278;79911;-63
2022/01/30 09:49:04;;;;;;;4.70;1.30;;;;;;;4.42;81.65;98170.55;89600;1277;82036;-63
2022/01/30 09:51:14;;;;;;;4.50;1.40;;;;;;;4.45;81.50;98169.00;89603;1277;99116;-70
2022/01/30 09:53:23;;;;;;;7.00;1.40;;;;;;;4.45;81.54;98170.23;89410;1278;87818;-71
2022/01/30 09:55:32;;;;;;;5.90;1.50;;;;;;;4.43;81.45;98165.66;89561;1277;95176;-72
2022/01/30 09:57:44;;;;;;;4.80;1.20;;;;;;;4.36;81.66;98158.34;89573;1277;81240;-71
2022/01/30 09:59:57;;;;;;;3.80;1.40;;;;;;;4.32;81.61;98160.23;89597;1277;82219;-71
2022/01/30 10:02:12;;;;;;;5.50;1.40;;;;;;;4.30;81.64;98154.46;89569;1277;99245;-72
2022/01/30 10:04:21;;;;;;;6.30;1.80;;;;;;;4.28;81.64;98159.33;89592;1277;87130;-71
2022/01/30 10:06:34;;;;;;;5.70;1.50;;;;;;;4.26;81.71;98159.11;89588;1277;93477;-61
2022/01/30 10:08:45;;;;;;;5.20;2.00;;;;;;;4.25;81.87;98164.30;89382;1278;80488;-62
2022/01/30 10:11:16;;;;;;;5.40;1.60;;;;;;;4.29;81.76;98161.05;89577;1277;84099;-62
2022/01/30 10:13:32;;;;;;;5.70;1.90;;;;;;;4.30;81.86;98153.65;89563;1277;99697;-71
2022/01/30 10:15:56;;;;;;;4.10;1.70;;;;;;;4.29;81.97;98158.41;89613;1277;88493;-71
2022/01/30 10:18:07;;;;;;;6.80;2.20;;;;;;;4.31;82.09;98155.70;89399;1278;95468;-71
2022/01/30 10:20:18;;;;;;;5.30;1.90;;;;;;;4.32;81.93;98147.19;89586;1277;79465;-70
2022/01/30 10:22:27;;;;;;;4.70;1.80;;;;;;;4.30;82.13;98141.39;89593;1277;82480;-62
2022/01/30 10:24:40;;;;;;;7.90;2.20;;;;;;;4.30;82.14;98143.16;89589;1277;98417;-62
2022/01/30 10:26:49;;;;;;;5.80;1.90;;;;;;;4.32;82.10;98133.45;89591;1277;87935;-70
2022/01/30 10:29:20;;;;;;;9.70;3.30;;;;;;;4.34;82.24;98140.83;89391;1278;93766;-71
2022/01/30 10:31:31;;;;;;;7.80;2.20;;;;;;;4.39;82.36;98137.66;89586;1277;80848;-62
2022/01/30 10:33:46;;;;;;;6.10;2.00;;;;;;;4.36;82.62;98141.65;89411;1278;80560;-62
2022/01/30 10:35:59;;;;;;;7.70;2.10;;;;;;;4.33;82.45;98138.27;89562;1277;98090;-62
2022/01/30 10:38:23;;;;;;;5.20;2.10;;;;;;;4.35;82.63;98139.05;89592;1277;86664;-63
2022/01/30 10:40:37;;;;;;;7.10;1.90;;;;;;;4.33;82.81;98147.77;89591;1277;95366;-62
2022/01/30 10:42:49;;;;;;;8.10;2.30;;;;;;;4.29;82.57;98147.89;89589;1277;78666;-71
2022/01/30 10:44:58;;;;;;;7.10;2.00;;;;;;;4.29;82.80;98148.80;89596;1277;80433;-71
2022/01/30 10:47:07;;;;;;;9.70;3.10;;;;;;;4.32;82.81;98146.34;89585;1277;100198;-71
2022/01/30 10:49:19;;;;;;;7.30;2.60;;;;;;;4.33;82.99;98139.55;89580;1277;89299;-72
2022/01/30 10:51:30;;;;;;;6.90;1.80;;;;;;;4.31;82.93;98155.34;89575;1277;95118;-71
2022/01/30 10:53:46;;;;;;;5.50;1.90;;;;;;;4.28;83.09;98142.91;89544;1277;79786;-70
2022/01/30 10:55:59;;;;;;;6.20;1.80;;;;;;;4.33;83.03;98137.38;89592;1277;83435;-70
2022/01/30 10:58:15;;;;;;;5.20;2.10;;;;;;;4.38;83.13;98131.20;89572;1277;97911;-69
2022/01/30 11:00:42;;;;;;;4.90;1.90;;;;;;;4.37;82.99;98128.32;89568;1277;87181;-69